Pennsylvania — WAPZ — position and weather

sailwx.info

Track history (hours):
 
Tides and Currents Weather Stations Pressure Air Temp Water Temp Dewpoint Dewpoint Depression Visibility Wind Speed Wind Dir Waves Ship Positions

Pennsylvania

Owner: Crowley Petroleum Services, Jacksonville, FL. More information available from US FCC via Universal Licensing System and Coast Guard Vessel Documentation Center.

Last reported at 2015-Feb-08 20:30 UTC. Time now 2015-Feb-28 17:33 UTC.
Position N 29°53' W 089°57'.
Warning: this ship's position is 19 days out of date.

Length 183 m; draft 11.4 m.

Type: Tanker. MMSI: 338617000.

Date/timePositionNaut miles runAvg speedWind from/ knotsBaromVisibWave heightAir tempDewpointWater temp
2015-Feb-08 20:30N 29°53' W 089°57'7 7.4
2015-Feb-08 19:32N 29°58' W 090°03'4110.2
2015-Feb-08 15:33N 30°00' W 090°50'2 0.1
2015-Feb-07 12:33N 30°02' W 090°50'3 3.0
2015-Feb-07 11:33N 29°59' W 090°49'10 9.9
2015-Feb-07 10:33N 30°03' W 090°39'9 9.0
2015-Feb-07 09:32N 30°02' W 090°28'9 8.7
2015-Feb-07 08:33N 29°56' W 090°21'8 8.0
2015-Feb-07 07:33N 29°55' W 090°12'7 7.5
2015-Feb-07 06:33N 29°56' W 090°04'6 4.2
2015-Feb-07 05:08N 29°53' W 089°58'  
Track history (hours):
 
Tides and Currents Weather Stations Pressure Air Temp Water Temp Dewpoint Dewpoint Depression Visibility Wind Speed Wind Dir Waves Ship Positions

Pennsylvania

Owner: Crowley Petroleum Services, Jacksonville, FL. More information available from US FCC via Universal Licensing System and Coast Guard Vessel Documentation Center.

Last reported at 2015-Feb-08 20:30 UTC. Time now 2015-Feb-28 17:33 UTC.
Position N 29°53' W 089°57'.
Warning: this ship's position is 19 days out of date.

Length 183 m; draft 11.4 m.

Type: Tanker. MMSI: 338617000.

Date/timePositionNaut miles runAvg speedWind from/ knotsBaromVisibWave heightAir tempDewpointWater temp
2015-Feb-08 20:30N 29°53' W 089°57'7 7.4
2015-Feb-08 19:32N 29°58' W 090°03'4110.2
2015-Feb-08 15:33N 30°00' W 090°50'2 0.1
2015-Feb-07 12:33N 30°02' W 090°50'3 3.0
2015-Feb-07 11:33N 29°59' W 090°49'10 9.9
2015-Feb-07 10:33N 30°03' W 090°39'9 9.0
2015-Feb-07 09:32N 30°02' W 090°28'9 8.7
2015-Feb-07 08:33N 29°56' W 090°21'8 8.0
2015-Feb-07 07:33N 29°55' W 090°12'7 7.5
2015-Feb-07 06:33N 29°56' W 090°04'6 4.2
2015-Feb-07 05:08N 29°53' W 089°58'  

Dump ship's entire track history